Weather at Lac Etchemin Airport

Public forecast

Using degrees Celsius for public forecast. Weather courtesy of forecast.io.

Closest aviation weather report (METAR) to Lac Etchemin Airport

Closest report is Quebec Jean Lesage International Airport, 43.4 nm (80.4 km) WNW. Retrieved 2021/02/27 01:00 UTC (1 hour ago):

CYQB 270100Z 06002KT 15SM FEW240 M14/M17 A3039 RMK CI2 SLP302

Closest aviation forecast (TAF) to Lac Etchemin Airport

Forecast is more than 6 hours old.

Closest forecast is Quebec Jean Lesage International Airport, 43.4 nm (80.4 km) WNW. Retrieved 2021/02/26 18:42 UTC (8 hours ago):

TAF TAF CYQB 261738Z 2618/2718 23012KT P6SM SKC BECMG 2700/2702 VRB03KT FM270900 04006KT P6SM FEW030 BKN240 FM271500 06008KT P6SM SCT030 BKN120 FM271700 06008KT 11/2SM -SN BKN015 OVC030 RMK NXT FCST BY 270000Z